Time;durP1;ratioP1;P1;durP2;ratioP2;P2;SDS_P1;SDS_P2;PMS_P1;PMS_P2;Temp;Humidity;BMP_temperature;BMP_pressure;BME280_temperature;BME280_humidity;BME280_pressure;Samples;Min_cycle;Max_cycle;Signal;HPM_P1;HPM_P2
2022/12/24 00:01:06;;;;;;;25.00;4.53;;;;;;;;;;5028089;28;20225;-73
2022/12/24 00:03:32;;;;;;;24.77;5.40;;;;;;;;;;5026007;28;20210;-73
2022/12/24 00:05:57;;;;;;;23.30;5.30;;;;;;;;;;5031412;28;20214;-73
2022/12/24 00:08:22;;;;;;;20.43;4.47;;;;;;;;;;5027165;28;20225;-73
2022/12/24 00:10:51;;;;;;;18.23;5.03;;;;;;;;;;5039906;22;20304;-79
2022/12/24 00:13:16;;;;;;;22.00;5.60;;;;;;;;;;5031773;28;20186;-78
2022/12/24 00:15:41;;;;;;;25.70;4.43;;;;;;;;;;5034390;28;20182;-78
2022/12/24 00:18:07;;;;;;;25.53;6.10;;;;;;;;;;5032589;28;20213;-79
2022/12/24 00:20:32;;;;;;;19.93;5.67;;;;;;;;;;5035977;28;20209;-78
2022/12/24 00:22:57;;;;;;;19.90;4.37;;;;;;;;;;5034094;28;20198;-79
2022/12/24 00:25:22;;;;;;;21.97;4.57;;;;;;;;;;5033237;28;20544;-78
2022/12/24 00:27:47;;;;;;;24.40;4.20;;;;;;;;;;5034775;28;20186;-78
2022/12/24 00:30:13;;;;;;;21.67;4.27;;;;;;;;;;5033845;28;20214;-78
2022/12/24 00:32:38;;;;;;;21.33;5.43;;;;;;;;;;5033862;28;20181;-78
2022/12/24 00:35:03;;;;;;;21.87;4.83;;;;;;;;;;5033503;28;20640;-78
2022/12/24 00:37:28;;;;;;;27.20;5.10;;;;;;;;;;5029053;28;20206;-79
2022/12/24 00:39:53;;;;;;;29.87;4.80;;;;;;;;;;5035153;28;20174;-79
2022/12/24 00:42:19;;;;;;;32.47;5.73;;;;;;;;;;5033253;28;20209;-78
2022/12/24 00:44:44;;;;;;;25.80;5.57;;;;;;;;;;5031037;28;20571;-79
2022/12/24 00:47:10;;;;;;;29.73;5.33;;;;;;;;;;5035885;28;20178;-78
2022/12/24 00:49:35;;;;;;;15.03;4.70;;;;;;;;;;5038936;28;20178;-79
2022/12/24 00:52:01;;;;;;;29.50;5.47;;;;;;;;;;5033249;28;20222;-79
2022/12/24 00:54:27;;;;;;;24.30;4.83;;;;;;;;;;5034359;28;20178;-79
2022/12/24 00:56:52;;;;;;;25.73;6.03;;;;;;;;;;5031652;28;20178;-79
2022/12/24 00:59:17;;;;;;;36.67;6.03;;;;;;;;;;5033637;28;20181;-79
2022/12/24 01:01:42;;;;;;;29.63;4.97;;;;;;;;;;5029489;28;20194;-79
2022/12/24 01:06:51;;;;;;;27.13;5.30;;;;;;;;;;5017543;28;20554;-79
2022/12/24 01:09:17;;;;;;;20.90;4.47;;;;;;;;;;5027923;28;20174;-79
2022/12/24 01:11:42;;;;;;;20.67;4.33;;;;;;;;;;5024094;28;20214;-79
2022/12/24 01:14:07;;;;;;;25.00;4.33;;;;;;;;;;5032952;28;20182;-79
2022/12/24 01:16:32;;;;;;;36.10;6.90;;;;;;;;;;5033310;28;20182;-79
2022/12/24 01:18:58;;;;;;;28.57;5.97;;;;;;;;;;5031384;28;20188;-79
2022/12/24 01:21:23;;;;;;;27.73;4.83;;;;;;;;;;5031989;28;20288;-78
2022/12/24 01:23:48;;;;;;;29.33;4.97;;;;;;;;;;5030588;28;20685;-80
2022/12/24 01:26:13;;;;;;;46.27;6.07;;;;;;;;;;5021514;28;20269;-79
2022/12/24 01:28:39;;;;;;;29.43;6.13;;;;;;;;;;5030572;28;20171;-79
2022/12/24 01:31:11;;;;;;;39.00;6.63;;;;;;;;;;5030578;28;20194;-79
2022/12/24 01:33:36;;;;;;;24.43;7.17;;;;;;;;;;5032521;28;20190;-79
2022/12/24 01:36:02;;;;;;;30.37;5.73;;;;;;;;;;5032412;28;20182;-79
2022/12/24 01:38:27;;;;;;;25.67;5.03;;;;;;;;;;5031538;28;20565;-79
2022/12/24 01:43:36;;;;;;;34.30;6.13;;;;;;;;;;5027366;28;20709;-79
2022/12/24 01:46:10;;;;;;;31.43;6.13;;;;;;;;;;5024273;28;20170;-79
2022/12/24 01:48:54;;;;;;;30.93;5.40;;;;;;;;;;5031845;28;20661;-79
2022/12/24 01:51:32;;;;;;;33.10;6.23;;;;;;;;;;5031545;28;20570;-79
2022/12/24 01:54:00;;;;;;;30.70;6.03;;;;;;;;;;5029453;28;20617;-79
2022/12/24 01:56:25;;;;;;;26.63;5.57;;;;;;;;;;5030180;28;20178;-79
2022/12/24 01:58:53;;;;;;;34.90;5.10;;;;;;;;;;5030148;28;20270;-79
2022/12/24 02:01:18;;;;;;;26.27;4.83;;;;;;;;;;5026067;28;20197;-79
2022/12/24 02:03:43;;;;;;;30.67;6.33;;;;;;;;;;5026759;28;20562;-80
2022/12/24 02:06:11;;;;;;;22.37;4.70;;;;;;;;;;5030691;28;20591;-80
2022/12/24 02:08:39;;;;;;;24.70;4.97;;;;;;;;;;5029764;28;20182;-80
2022/12/24 02:11:12;;;;;;;20.03;3.97;;;;;;;;;;5030095;28;20680;-79
2022/12/24 02:13:37;;;;;;;37.50;6.30;;;;;;;;;;5031870;28;20268;-79
2022/12/24 02:16:10;;;;;;;25.67;6.13;;;;;;;;;;5032478;28;20752;-79
2022/12/24 02:18:45;;;;;;;17.33;4.43;;;;;;;;;;5032067;28;20570;-80
2022/12/24 02:21:34;;;;;;;24.10;4.17;;;;;;;;;;5018951;28;20385;-80
2022/12/24 02:24:22;;;;;;;22.53;3.73;;;;;;;;;;5031086;28;20551;-80
2022/12/24 02:27:06;;;;;;;21.83;3.87;;;;;;;;;;5001870;28;20189;-79
2022/12/24 02:29:52;;;;;;;19.40;4.80;;;;;;;;;;5032635;28;20188;-80
2022/12/24 02:32:21;;;;;;;18.03;3.43;;;;;;;;;;5028608;28;20203;-79
2022/12/24 02:34:50;;;;;;;24.37;4.13;;;;;;;;;;5029914;28;20236;-79
2022/12/24 02:37:22;;;;;;;26.07;4.50;;;;;;;;;;5028033;28;20390;-79
2022/12/24 02:40:00;;;;;;;26.77;4.57;;;;;;;;;;5026709;28;20182;-79
2022/12/24 02:42:27;;;;;;;23.67;5.50;;;;;;;;;;5029619;28;21501;-81
2022/12/24 02:44:54;;;;;;;11.57;3.17;;;;;;;;;;5034133;28;20182;-79
2022/12/24 02:47:21;;;;;;;22.50;3.70;;;;;;;;;;5036667;28;20230;-78
2022/12/24 02:49:47;;;;;;;30.33;4.03;;;;;;;;;;5029811;28;20213;-79
2022/12/24 02:52:32;;;;;;;33.07;4.87;;;;;;;;;;5027291;28;20640;-80
2022/12/24 02:54:59;;;;;;;26.23;4.60;;;;;;;;;;5014812;28;20289;-77
2022/12/24 02:57:48;;;;;;;30.47;5.83;;;;;;;;;;5026870;28;20276;-78
2022/12/24 03:00:15;;;;;;;26.80;4.67;;;;;;;;;;5014913;28;20210;-78
2022/12/24 03:02:55;;;;;;;22.83;5.70;;;;;;;;;;5031197;28;20477;-77
2022/12/24 03:05:23;;;;;;;20.57;4.43;;;;;;;;;;5030813;28;20648;-78
2022/12/24 03:08:12;;;;;;;29.80;6.03;;;;;;;;;;5025906;28;20177;-79
2022/12/24 03:10:44;;;;;;;29.77;4.83;;;;;;;;;;5000394;28;20844;-78
2022/12/24 03:13:12;;;;;;;23.80;5.07;;;;;;;;;;5027990;28;20182;-78
2022/12/24 03:15:38;;;;;;;33.50;5.13;;;;;;;;;;5028358;28;20244;-79
2022/12/24 03:18:05;;;;;;;30.10;5.13;;;;;;;;;;5030256;28;20209;-78
2022/12/24 03:20:35;;;;;;;32.00;6.70;;;;;;;;;;5028221;28;20305;-78
2022/12/24 03:23:01;;;;;;;32.00;6.00;;;;;;;;;;5029032;28;20566;-78
2022/12/24 03:25:26;;;;;;;25.73;4.97;;;;;;;;;;5027807;28;20187;-78
2022/12/24 03:27:52;;;;;;;39.77;8.27;;;;;;;;;;5030374;28;20732;-78
2022/12/24 03:30:17;;;;;;;23.70;6.00;;;;;;;;;;5028662;28;20202;-78
2022/12/24 03:32:43;;;;;;;30.47;5.97;;;;;;;;;;5030002;28;20228;-78
2022/12/24 03:35:08;;;;;;;43.60;7.13;;;;;;;;;;5030158;28;20194;-78
2022/12/24 03:37:34;;;;;;;30.13;5.53;;;;;;;;;;5029879;28;20190;-79
2022/12/24 03:39:59;;;;;;;28.77;4.87;;;;;;;;;;5029793;28;20182;-78
2022/12/24 03:42:24;;;;;;;40.20;8.00;;;;;;;;;;5026673;28;20690;-78
2022/12/24 03:44:49;;;;;;;28.50;6.07;;;;;;;;;;5030044;28;20171;-78
2022/12/24 03:47:15;;;;;;;26.80;5.27;;;;;;;;;;5029011;28;20708;-79
2022/12/24 03:49:40;;;;;;;47.00;6.83;;;;;;;;;;5033381;28;20185;-78
2022/12/24 03:52:05;;;;;;;34.07;5.93;;;;;;;;;;5032957;28;20213;-78
2022/12/24 03:54:30;;;;;;;28.77;5.87;;;;;;;;;;5030457;28;20317;-78
2022/12/24 03:56:55;;;;;;;30.33;5.40;;;;;;;;;;5032742;28;20236;-78
2022/12/24 03:59:21;;;;;;;27.40;5.37;;;;;;;;;;5031706;28;20186;-78
2022/12/24 04:01:46;;;;;;;27.87;5.27;;;;;;;;;;5029964;28;20201;-78
2022/12/24 04:04:11;;;;;;;34.67;5.23;;;;;;;;;;5033933;28;20244;-78
2022/12/24 04:06:36;;;;;;;36.87;6.10;;;;;;;;;;5032033;28;20680;-79
2022/12/24 04:09:03;;;;;;;26.70;6.07;;;;;;;;;;5032957;28;20189;-79
2022/12/24 04:11:29;;;;;;;26.83;4.63;;;;;;;;;;5031866;28;20221;-78
2022/12/24 04:13:54;;;;;;;26.97;6.13;;;;;;;;;;5033020;28;20171;-79
2022/12/24 04:16:20;;;;;;;35.37;5.63;;;;;;;;;;5032558;28;20561;-78
2022/12/24 04:18:45;;;;;;;25.07;4.90;;;;;;;;;;5030568;28;20185;-79
2022/12/24 04:21:10;;;;;;;28.07;6.63;;;;;;;;;;5030706;28;20198;-79
2022/12/24 04:23:36;;;;;;;32.77;7.97;;;;;;;;;;5032923;28;20647;-79
2022/12/24 04:26:02;;;;;;;21.90;4.90;;;;;;;;;;5032784;28;20232;-78
2022/12/24 04:28:28;;;;;;;28.60;4.60;;;;;;;;;;5032726;28;20190;-79
2022/12/24 04:30:57;;;;;;;20.53;4.67;;;;;;;;;;5030404;28;20653;-79
2022/12/24 04:33:23;;;;;;;23.67;5.00;;;;;;;;;;5029977;28;20186;-78
2022/12/24 04:35:48;;;;;;;21.77;3.97;;;;;;;;;;5030968;28;20178;-78
2022/12/24 04:38:13;;;;;;;21.27;3.40;;;;;;;;;;5032202;28;20182;-78
2022/12/24 04:40:38;;;;;;;15.77;4.63;;;;;;;;;;5031958;28;20281;-78
2022/12/24 04:43:03;;;;;;;30.07;6.70;;;;;;;;;;5028786;28;20214;-78
2022/12/24 04:45:30;;;;;;;22.93;4.47;;;;;;;;;;5032105;28;20258;-78
2022/12/24 04:47:55;;;;;;;27.33;6.00;;;;;;;;;;5032343;28;20178;-78
2022/12/24 04:50:20;;;;;;;21.47;3.97;;;;;;;;;;5030536;28;20263;-78
2022/12/24 04:52:45;;;;;;;27.57;5.30;;;;;;;;;;5031671;28;20273;-78
2022/12/24 04:55:10;;;;;;;27.80;4.87;;;;;;;;;;5027698;28;20636;-79
2022/12/24 04:57:36;;;;;;;29.43;5.50;;;;;;;;;;5031923;28;20720;-79
2022/12/24 05:00:02;;;;;;;19.53;5.57;;;;;;;;;;5031048;28;20189;-79
2022/12/24 05:02:28;;;;;;;28.63;4.30;;;;;;;;;;5031174;28;20233;-79
2022/12/24 05:04:53;;;;;;;19.50;6.10;;;;;;;;;;5031640;28;20202;-78
2022/12/24 05:07:18;;;;;;;29.80;6.03;;;;;;;;;;5030491;28;20265;-78
2022/12/24 05:09:43;;;;;;;32.80;6.77;;;;;;;;;;5031348;28;20277;-78
2022/12/24 05:12:09;;;;;;;18.90;5.10;;;;;;;;;;5030790;28;20591;-78
2022/12/24 05:14:34;;;;;;;25.00;5.10;;;;;;;;;;5032378;28;20186;-78
2022/12/24 05:16:59;;;;;;;31.33;5.30;;;;;;;;;;5032213;28;20228;-78
2022/12/24 05:19:24;;;;;;;35.53;6.10;;;;;;;;;;5032064;28;20229;-78
2022/12/24 05:26:20;;;;;;;21.10;4.93;;;;;;;;;;5029535;28;20771;-78
2022/12/24 05:27:18;;;;;;;35.37;6.33;;;;;;;;;;5031661;28;20263;-78
2022/12/24 05:29:44;;;;;;;39.00;7.40;;;;;;;;;;5031705;28;20202;-79
2022/12/24 05:32:09;;;;;;;28.07;6.13;;;;;;;;;;5030710;28;20202;-78
2022/12/24 05:34:34;;;;;;;38.30;7.00;;;;;;;;;;5025733;28;20190;-78
2022/12/24 05:36:59;;;;;;;30.43;7.07;;;;;;;;;;5031668;28;20186;-78
2022/12/24 05:39:24;;;;;;;32.97;6.00;;;;;;;;;;5031655;28;20613;-78
2022/12/24 05:41:50;;;;;;;34.07;7.57;;;;;;;;;;5029761;28;20206;-78
2022/12/24 05:44:15;;;;;;;31.93;6.30;;;;;;;;;;5031293;28;20293;-78
2022/12/24 05:46:40;;;;;;;26.17;6.17;;;;;;;;;;5033513;28;20257;-78
2022/12/24 05:49:05;;;;;;;36.17;7.00;;;;;;;;;;5029343;28;20174;-77
2022/12/24 05:51:31;;;;;;;36.87;5.87;;;;;;;;;;5031384;28;20237;-79
2022/12/24 05:53:56;;;;;;;28.47;6.67;;;;;;;;;;5030770;28;20185;-77
2022/12/24 05:56:22;;;;;;;31.03;6.57;;;;;;;;;;5028608;28;20193;-77
2022/12/24 05:58:47;;;;;;;31.53;6.23;;;;;;;;;;5031389;28;20178;-77
2022/12/24 06:01:13;;;;;;;48.63;8.30;;;;;;;;;;5030085;28;20198;-77
2022/12/24 06:03:38;;;;;;;41.00;7.20;;;;;;;;;;5027917;28;20209;-77
2022/12/24 06:06:05;;;;;;;45.27;6.53;;;;;;;;;;5035317;28;20174;-77
2022/12/24 06:08:31;;;;;;;29.67;7.10;;;;;;;;;;5031117;28;20206;-78
2022/12/24 06:10:58;;;;;;;34.33;6.43;;;;;;;;;;5027376;28;20292;-78
2022/12/24 06:13:24;;;;;;;34.63;6.23;;;;;;;;;;5029661;28;20213;-78
2022/12/24 06:15:49;;;;;;;36.83;6.67;;;;;;;;;;5028456;28;20556;-78
2022/12/24 06:18:14;;;;;;;36.57;6.13;;;;;;;;;;5029349;28;20193;-78
2022/12/24 06:20:39;;;;;;;37.60;8.17;;;;;;;;;;5030453;28;20200;-78
2022/12/24 06:23:04;;;;;;;30.03;6.30;;;;;;;;;;5024547;28;20191;-78
2022/12/24 06:25:30;;;;;;;40.17;8.43;;;;;;;;;;5030971;28;20710;-78
2022/12/24 06:27:55;;;;;;;45.67;7.83;;;;;;;;;;5030699;28;20186;-77
2022/12/24 06:30:20;;;;;;;37.67;7.03;;;;;;;;;;5031690;28;20245;-78
2022/12/24 06:32:45;;;;;;;36.50;8.33;;;;;;;;;;5027604;28;20178;-77
2022/12/24 06:35:11;;;;;;;39.23;6.07;;;;;;;;;;5028643;28;20182;-78
2022/12/24 06:37:36;;;;;;;33.87;6.90;;;;;;;;;;5030341;28;20186;-78
2022/12/24 06:40:01;;;;;;;39.40;9.43;;;;;;;;;;5030251;28;20178;-78
2022/12/24 06:42:26;;;;;;;33.97;6.67;;;;;;;;;;5028040;28;20205;-78
2022/12/24 06:44:51;;;;;;;47.43;6.90;;;;;;;;;;5030531;28;20236;-78
2022/12/24 06:47:17;;;;;;;28.77;6.03;;;;;;;;;;5025427;28;20172;-78
2022/12/24 06:49:42;;;;;;;41.13;8.10;;;;;;;;;;5028661;28;20174;-78
2022/12/24 06:52:07;;;;;;;33.20;8.30;;;;;;;;;;5029178;28;20202;-78
2022/12/24 06:54:32;;;;;;;39.63;8.37;;;;;;;;;;5027114;28;20198;-78
2022/12/24 06:56:57;;;;;;;33.53;6.20;;;;;;;;;;5030418;28;20174;-78
2022/12/24 06:59:23;;;;;;;36.17;6.53;;;;;;;;;;5032029;28;20544;-79
2022/12/24 07:01:48;;;;;;;38.77;7.13;;;;;;;;;;5025704;28;20787;-78
2022/12/24 07:04:13;;;;;;;38.03;7.60;;;;;;;;;;5029390;28;20206;-78
2022/12/24 07:06:38;;;;;;;37.27;8.97;;;;;;;;;;5026483;28;20175;-78
2022/12/24 07:09:03;;;;;;;38.67;7.00;;;;;;;;;;5031235;28;21120;-78
2022/12/24 07:11:29;;;;;;;37.73;6.43;;;;;;;;;;5026841;28;20214;-78
2022/12/24 07:13:54;;;;;;;31.83;6.80;;;;;;;;;;5030243;28;20567;-78
2022/12/24 07:16:19;;;;;;;35.00;6.17;;;;;;;;;;5027230;28;20660;-78
2022/12/24 07:18:44;;;;;;;45.10;7.03;;;;;;;;;;5029751;28;20178;-78
2022/12/24 07:21:09;;;;;;;27.50;7.03;;;;;;;;;;5028918;28;20240;-78
2022/12/24 07:23:35;;;;;;;54.20;9.23;;;;;;;;;;5029333;28;20201;-78
2022/12/24 07:26:01;;;;;;;33.30;5.60;;;;;;;;;;5029793;28;20636;-78
2022/12/24 07:28:27;;;;;;;33.47;5.37;;;;;;;;;;5027329;28;20270;-78
2022/12/24 07:30:52;;;;;;;31.63;6.03;;;;;;;;;;5026694;28;20206;-78
2022/12/24 07:33:17;;;;;;;38.40;6.37;;;;;;;;;;5026619;28;20559;-78
2022/12/24 07:35:42;;;;;;;33.83;6.70;;;;;;;;;;5029850;28;20182;-78
2022/12/24 07:38:08;;;;;;;28.83;5.70;;;;;;;;;;5028754;28;20186;-78
2022/12/24 07:40:33;;;;;;;36.53;6.60;;;;;;;;;;5029102;28;20240;-78
2022/12/24 07:42:59;;;;;;;35.93;5.97;;;;;;;;;;5028573;28;20202;-78
2022/12/24 07:45:24;;;;;;;41.63;7.17;;;;;;;;;;5029134;28;20178;-78
2022/12/24 07:47:49;;;;;;;31.97;7.17;;;;;;;;;;5025109;28;20175;-78
2022/12/24 07:50:14;;;;;;;30.57;5.37;;;;;;;;;;5024143;28;20209;-78
2022/12/24 07:52:40;;;;;;;26.20;5.80;;;;;;;;;;5024011;28;20236;-78
2022/12/24 07:55:05;;;;;;;39.27;6.10;;;;;;;;;;5023874;28;20719;-77
2022/12/24 07:57:30;;;;;;;32.87;6.07;;;;;;;;;;5027754;28;20561;-77
2022/12/24 07:59:56;;;;;;;31.87;7.10;;;;;;;;;;5030154;28;20652;-78
2022/12/24 08:02:21;;;;;;;32.37;6.90;;;;;;;;;;5026885;28;20652;-78
2022/12/24 08:04:46;;;;;;;30.77;7.83;;;;;;;;;;5033314;28;20729;-78
2022/12/24 08:07:11;;;;;;;43.83;8.33;;;;;;;;;;5026394;28;20178;-78
2022/12/24 08:09:37;;;;;;;36.07;7.03;;;;;;;;;;5028140;28;20191;-78
2022/12/24 08:12:03;;;;;;;37.43;8.80;;;;;;;;;;5028305;28;20202;-78
2022/12/24 08:14:28;;;;;;;40.23;8.33;;;;;;;;;;5028296;28;20178;-78
2022/12/24 08:16:53;;;;;;;44.30;11.83;;;;;;;;;;5027956;28;20178;-78
2022/12/24 08:19:19;;;;;;;34.80;8.30;;;;;;;;;;5025758;28;20205;-78
2022/12/24 08:21:44;;;;;;;48.80;9.47;;;;;;;;;;5031274;28;20710;-78
2022/12/24 08:24:09;;;;;;;39.70;8.63;;;;;;;;;;5029580;28;20198;-77
2022/12/24 08:26:34;;;;;;;37.57;7.53;;;;;;;;;;5029432;28;20183;-78
2022/12/24 08:29:00;;;;;;;49.93;8.40;;;;;;;;;;5028095;28;20174;-78
2022/12/24 08:31:25;;;;;;;40.73;8.37;;;;;;;;;;5028495;28;20198;-78
2022/12/24 08:33:50;;;;;;;44.63;8.80;;;;;;;;;;5031067;28;20258;-77
2022/12/24 08:36:16;;;;;;;32.83;6.50;;;;;;;;;;5033406;28;20213;-78
2022/12/24 08:38:41;;;;;;;40.43;7.03;;;;;;;;;;5032760;28;20182;-78
2022/12/24 08:41:06;;;;;;;32.30;8.20;;;;;;;;;;5032093;28;20205;-78
2022/12/24 08:43:31;;;;;;;34.27;9.30;;;;;;;;;;5032865;28;20733;-77
2022/12/24 08:46:00;;;;;;;40.10;7.60;;;;;;;;;;5031578;28;20757;-78
2022/12/24 08:48:25;;;;;;;35.37;7.40;;;;;;;;;;5033713;28;20174;-77
2022/12/24 08:50:50;;;;;;;25.03;6.93;;;;;;;;;;5033595;28;20205;-78
2022/12/24 08:53:15;;;;;;;35.23;7.63;;;;;;;;;;5030176;28;20172;-78
2022/12/24 08:55:41;;;;;;;27.73;5.80;;;;;;;;;;5035813;28;20175;-78
2022/12/24 08:58:06;;;;;;;20.37;6.47;;;;;;;;;;5024344;28;20197;-78
2022/12/24 09:00:31;;;;;;;46.90;6.97;;;;;;;;;;5032068;28;20692;-78
2022/12/24 09:02:57;;;;;;;27.10;5.70;;;;;;;;;;5030989;28;20206;-78
2022/12/24 09:05:22;;;;;;;27.43;6.23;;;;;;;;;;5035744;28;20182;-78
2022/12/24 09:07:47;;;;;;;29.60;7.23;;;;;;;;;;5033285;28;20179;-77
2022/12/24 09:10:12;;;;;;;25.33;7.17;;;;;;;;;;5033514;28;20281;-78
2022/12/24 09:12:37;;;;;;;30.50;6.87;;;;;;;;;;5030702;28;20174;-78
2022/12/24 09:15:04;;;;;;;24.33;5.40;;;;;;;;;;5030716;28;20182;-78
2022/12/24 09:17:30;;;;;;;31.63;5.47;;;;;;;;;;5031336;28;20193;-78
2022/12/24 09:19:55;;;;;;;35.97;6.23;;;;;;;;;;5031288;28;20190;-78
2022/12/24 09:22:20;;;;;;;29.43;5.53;;;;;;;;;;5031403;28;20218;-78
2022/12/24 09:24:45;;;;;;;33.07;6.30;;;;;;;;;;5032761;28;20178;-78
2022/12/24 09:27:11;;;;;;;29.37;6.67;;;;;;;;;;5032781;28;20178;-78
2022/12/24 09:29:39;;;;;;;25.70;4.73;;;;;;;;;;5031862;28;21339;-78
2022/12/24 09:32:04;;;;;;;27.77;5.97;;;;;;;;;;5031692;28;20194;-78
2022/12/24 09:34:29;;;;;;;21.93;5.40;;;;;;;;;;5032584;28;20557;-78
2022/12/24 09:36:55;;;;;;;34.47;6.20;;;;;;;;;;5030811;28;20663;-78
2022/12/24 09:39:20;;;;;;;24.33;6.97;;;;;;;;;;5032391;28;20183;-78
2022/12/24 09:42:07;;;;;;;28.73;5.47;;;;;;;;;;5029851;28;20287;-78
2022/12/24 09:44:41;;;;;;;18.97;5.27;;;;;;;;;;5031954;28;20285;-77
2022/12/24 09:47:33;;;;;;;21.97;4.70;;;;;;;;;;5031585;28;20174;-77
2022/12/24 09:50:00;;;;;;;23.33;5.30;;;;;;;;;;5027767;28;20193;-78
2022/12/24 09:52:28;;;;;;;26.87;6.27;;;;;;;;;;5025935;28;20210;-78
2022/12/24 09:55:20;;;;;;;21.03;5.87;;;;;;;;;;5028396;28;20179;-78
2022/12/24 09:57:46;;;;;;;27.83;7.60;;;;;;;;;;5025862;28;20576;-78
2022/12/24 10:00:22;;;;;;;29.60;5.40;;;;;;;;;;5030066;28;20285;-78
2022/12/24 10:02:47;;;;;;;26.93;5.60;;;;;;;;;;5022890;28;20193;-78
2022/12/24 10:05:28;;;;;;;27.83;5.37;;;;;;;;;;5030609;28;20182;-78
2022/12/24 10:08:08;;;;;;;25.10;5.03;;;;;;;;;;5024026;28;20185;-78
2022/12/24 10:10:39;;;;;;;23.40;5.10;;;;;;;;;;5032725;28;20198;-78
2022/12/24 10:13:13;;;;;;;30.83;6.47;;;;;;;;;;5031984;28;20285;-78
2022/12/24 10:15:42;;;;;;;23.17;4.80;;;;;;;;;;5032900;28;20185;-78
2022/12/24 10:18:07;;;;;;;31.80;5.43;;;;;;;;;;5025775;28;20505;-78
2022/12/24 10:20:39;;;;;;;28.07;6.37;;;;;;;;;;5031661;28;20209;-78
2022/12/24 10:23:05;;;;;;;25.67;4.90;;;;;;;;;;5030955;28;20206;-78
2022/12/24 10:25:36;;;;;;;20.83;5.30;;;;;;;;;;5031729;28;20640;-78
2022/12/24 10:28:04;;;;;;;35.03;6.20;;;;;;;;;;5030947;28;20175;-78
2022/12/24 10:30:30;;;;;;;30.83;7.50;;;;;;;;;;5031447;28;20226;-78
2022/12/24 10:32:55;;;;;;;31.13;7.70;;;;;;;;;;5021604;28;20179;-78
2022/12/24 10:35:35;;;;;;;28.98;5.97;;;;;;;;;;5031317;28;20185;-78
2022/12/24 10:38:01;;;;;;;25.17;5.10;;;;;;;;;;5032293;28;20189;-78
2022/12/24 10:40:43;;;;;;;30.13;6.75;;;;;;;;;;5031466;28;20190;-78
2022/12/24 10:43:15;;;;;;;24.33;5.00;;;;;;;;;;5031102;28;20206;-78
2022/12/24 10:45:42;;;;;;;25.30;7.17;;;;;;;;;;5031136;28;20269;-78
2022/12/24 10:48:10;;;;;;;26.70;6.88;;;;;;;;;;5029479;28;20195;-78
2022/12/24 10:50:41;;;;;;;32.67;6.45;;;;;;;;;;5028892;28;20220;-78
2022/12/24 10:53:25;;;;;;;21.48;4.93;;;;;;;;;;5030007;28;20174;-77
2022/12/24 10:55:59;;;;;;;24.98;5.40;;;;;;;;;;5021883;28;20178;-78
2022/12/24 10:58:24;;;;;;;27.40;5.97;;;;;;;;;;5027379;28;20276;-78
2022/12/24 11:00:50;;;;;;;26.90;6.10;;;;;;;;;;5028623;28;20277;-78
2022/12/24 11:03:21;;;;;;;27.67;7.80;;;;;;;;;;5027317;28;20214;-78
2022/12/24 11:05:57;;;;;;;29.88;5.93;;;;;;;;;;5028649;28;20171;-78
2022/12/24 11:08:24;;;;;;;25.47;6.87;;;;;;;;;;5027765;28;20189;-78
2022/12/24 11:11:10;;;;;;;34.83;5.88;;;;;;;;;;5029879;28;20741;-78
2022/12/24 11:13:40;;;;;;;17.33;4.22;;;;;;;;;;5030585;28;20189;-78
2022/12/24 11:16:05;;;;;;;19.88;4.10;;;;;;;;;;5029213;28;20186;-78
2022/12/24 11:18:32;;;;;;;22.93;5.77;;;;;;;;;;5030463;28;20185;-78
2022/12/24 11:20:59;;;;;;;21.05;4.82;;;;;;;;;;5028733;28;20664;-78
2022/12/24 11:23:25;;;;;;;21.25;4.97;;;;;;;;;;5032587;28;20293;-78
2022/12/24 11:25:51;;;;;;;22.83;5.05;;;;;;;;;;5034444;28;20224;-78
2022/12/24 11:28:21;;;;;;;18.43;4.03;;;;;;;;;;5027829;28;20296;-78
2022/12/24 11:30:55;;;;;;;32.67;6.32;;;;;;;;;;5026419;28;20220;-78
2022/12/24 11:33:21;;;;;;;23.77;5.77;;;;;;;;;;5029705;28;20192;-78
2022/12/24 11:35:47;;;;;;;32.47;5.17;;;;;;;;;;5029589;28;20182;-78
2022/12/24 11:38:18;;;;;;;30.70;6.43;;;;;;;;;;5030026;28;20337;-78
2022/12/24 11:40:45;;;;;;;18.20;4.43;;;;;;;;;;5029192;28;20202;-79
2022/12/24 11:43:17;;;;;;;21.20;4.60;;;;;;;;;;5033133;28;20565;-79
2022/12/24 11:45:56;;;;;;;28.33;5.17;;;;;;;;;;5022867;28;20187;-79
2022/12/24 11:48:31;;;;;;;22.87;4.30;;;;;;;;;;5025627;28;20182;-79
2022/12/24 11:51:16;;;;;;;22.67;5.17;;;;;;;;;;5026665;28;20206;-79
2022/12/24 11:54:00;;;;;;;26.37;5.70;;;;;;;;;;5030049;28;20181;-79
2022/12/24 11:56:26;;;;;;;27.30;4.47;;;;;;;;;;5028857;28;20561;-78
2022/12/24 11:58:55;;;;;;;24.80;5.23;;;;;;;;;;5027379;28;20189;-80
2022/12/24 12:01:26;;;;;;;20.37;4.20;;;;;;;;;;5028872;28;20395;-79
2022/12/24 12:03:58;;;;;;;22.27;6.70;;;;;;;;;;5028911;28;20213;-79
2022/12/24 12:06:44;;;;;;;17.63;3.97;;;;;;;;;;5028544;28;20249;-79
2022/12/24 12:09:24;;;;;;;19.17;4.07;;;;;;;;;;5034549;28;20190;-79
2022/12/24 12:11:52;;;;;;;19.65;4.15;;;;;;;;;;5044559;22;20237;-73
2022/12/24 12:14:21;;;;;;;22.80;5.13;;;;;;;;;;5031279;28;20659;-72
2022/12/24 12:17:06;;;;;;;19.57;5.43;;;;;;;;;;5033064;28;20228;-72
2022/12/24 12:19:35;;;;;;;19.80;4.15;;;;;;;;;;5031000;28;20182;-72
2022/12/24 12:22:02;;;;;;;17.00;3.55;;;;;;;;;;5043304;28;20228;-73
2022/12/24 12:24:33;;;;;;;22.38;4.13;;;;;;;;;;5030570;28;20217;-72
2022/12/24 12:27:24;;;;;;;20.35;6.35;;;;;;;;;;5034612;28;20186;-72
2022/12/24 12:30:05;;;;;;;21.67;4.95;;;;;;;;;;5020013;28;20594;-75
2022/12/24 12:32:37;;;;;;;17.67;5.13;;;;;;;;;;5028136;28;20214;-74
2022/12/24 12:35:15;;;;;;;16.92;5.03;;;;;;;;;;5033767;28;20190;-74
2022/12/24 12:37:43;;;;;;;24.27;4.47;;;;;;;;;;5030957;28;20260;-74
2022/12/24 12:40:13;;;;;;;15.27;3.63;;;;;;;;;;5031115;28;20183;-74
2022/12/24 12:42:39;;;;;;;20.03;5.87;;;;;;;;;;5030789;28;20174;-72
2022/12/24 12:45:19;;;;;;;19.67;3.17;;;;;;;;;;5030989;28;20269;-72
2022/12/24 12:47:44;;;;;;;22.27;4.53;;;;;;;;;;5033912;28;20691;-74
2022/12/24 12:50:27;;;;;;;15.95;3.47;;;;;;;;;;5034932;28;20273;-74
2022/12/24 12:52:52;;;;;;;16.85;3.72;;;;;;;;;;5034274;28;20182;-74
2022/12/24 12:55:36;;;;;;;19.42;4.68;;;;;;;;;;5030205;28;20178;-74
2022/12/24 12:58:09;;;;;;;19.45;3.70;;;;;;;;;;5031276;28;20178;-74
2022/12/24 13:00:36;;;;;;;20.85;4.10;;;;;;;;;;5030898;28;20198;-74
2022/12/24 13:03:04;;;;;;;15.18;3.78;;;;;;;;;;5030435;28;20256;-75
2022/12/24 13:05:29;;;;;;;18.90;3.45;;;;;;;;;;5031229;28;20208;-74
2022/12/24 13:08:11;;;;;;;12.35;3.50;;;;;;;;;;5033411;28;20253;-72
2022/12/24 13:10:36;;;;;;;11.90;3.30;;;;;;;;;;5030399;28;20209;-72
2022/12/24 13:13:10;;;;;;;12.68;3.53;;;;;;;;;;5032179;28;20571;-72
2022/12/24 13:15:44;;;;;;;12.63;4.38;;;;;;;;;;5033716;28;20181;-73
2022/12/24 13:18:12;;;;;;;13.52;3.67;;;;;;;;;;5032650;28;20647;-73
2022/12/24 13:20:45;;;;;;;13.27;3.25;;;;;;;;;;5030768;28;20202;-73
2022/12/24 13:23:14;;;;;;;17.08;4.38;;;;;;;;;;5027996;28;20206;-73
2022/12/24 13:25:44;;;;;;;22.63;4.45;;;;;;;;;;5032280;28;20714;-73
2022/12/24 13:28:21;;;;;;;10.10;3.35;;;;;;;;;;5032937;28;20185;-72
2022/12/24 13:30:48;;;;;;;21.95;3.58;;;;;;;;;;5025097;28;20667;-72
2022/12/24 13:33:33;;;;;;;10.88;3.55;;;;;;;;;;5033438;28;20287;-72
2022/12/24 13:36:01;;;;;;;22.83;5.07;;;;;;;;;;5031090;28;20178;-72
2022/12/24 13:38:26;;;;;;;15.77;3.95;;;;;;;;;;5030098;28;20183;-72
2022/12/24 13:40:51;;;;;;;23.02;5.78;;;;;;;;;;5032194;28;20265;-73
2022/12/24 13:43:17;;;;;;;16.02;4.07;;;;;;;;;;5031409;28;20206;-72
2022/12/24 13:45:43;;;;;;;17.02;3.55;;;;;;;;;;5031079;28;20182;-72
2022/12/24 13:48:08;;;;;;;15.52;4.05;;;;;;;;;;5031388;28;20186;-72
2022/12/24 13:50:33;;;;;;;17.42;3.78;;;;;;;;;;5033000;28;20216;-73
2022/12/24 13:52:59;;;;;;;15.45;4.13;;;;;;;;;;5032554;28;20216;-74
2022/12/24 13:55:24;;;;;;;20.23;3.58;;;;;;;;;;5031286;28;20186;-73
2022/12/24 13:57:52;;;;;;;15.20;3.47;;;;;;;;;;5031686;28;20214;-73
2022/12/24 14:00:20;;;;;;;17.15;4.43;;;;;;;;;;5028874;28;20185;-73
2022/12/24 14:02:58;;;;;;;19.08;4.55;;;;;;;;;;5036755;28;20198;-73
2022/12/24 14:05:29;;;;;;;21.80;4.03;;;;;;;;;;5029369;28;20209;-73
2022/12/24 14:07:55;;;;;;;30.50;5.47;;;;;;;;;;5031991;28;20644;-73
2022/12/24 14:10:23;;;;;;;24.48;4.32;;;;;;;;;;5029580;28;20174;-73
2022/12/24 14:12:50;;;;;;;16.38;3.78;;;;;;;;;;5026924;28;20181;-73
2022/12/24 14:15:33;;;;;;;21.45;4.25;;;;;;;;;;5032684;28;20285;-73
2022/12/24 14:17:59;;;;;;;17.98;4.43;;;;;;;;;;5030668;28;20200;-73
2022/12/24 14:20:24;;;;;;;21.92;4.68;;;;;;;;;;5032442;28;20679;-73
2022/12/24 14:22:50;;;;;;;19.85;4.38;;;;;;;;;;5027635;28;20202;-73
2022/12/24 14:25:17;;;;;;;16.55;4.57;;;;;;;;;;5031550;28;20189;-74
2022/12/24 14:27:45;;;;;;;22.45;5.28;;;;;;;;;;5030040;28;20808;-73
2022/12/24 14:30:27;;;;;;;19.55;3.72;;;;;;;;;;5029599;28;20175;-74
2022/12/24 14:32:52;;;;;;;20.13;5.20;;;;;;;;;;5028539;28;20190;-74
2022/12/24 14:35:18;;;;;;;25.27;5.25;;;;;;;;;;5032414;28;20190;-73
2022/12/24 14:38:03;;;;;;;16.88;3.97;;;;;;;;;;5032680;28;20573;-73
2022/12/24 14:40:30;;;;;;;18.88;4.22;;;;;;;;;;5045598;28;20190;-73
2022/12/24 14:43:17;;;;;;;20.95;3.75;;;;;;;;;;5027288;28;20898;-73
2022/12/24 14:45:48;;;;;;;25.35;4.55;;;;;;;;;;5031172;28;20174;-73